sensor_id;sensor_type;location;lat;lon;timestamp;P1;durP1;ratioP1;P2;durP2;ratioP2
40837;SDS011;29632;49.168;9.848;2022-09-16T00:01:18;7.50;;;4.00;;
40837;SDS011;29632;49.168;9.848;2022-09-16T00:03:45;8.10;;;3.77;;
40837;SDS011;29632;49.168;9.848;2022-09-16T00:06:22;5.47;;;3.80;;
40837;SDS011;29632;49.168;9.848;2022-09-16T00:08:55;7.20;;;3.90;;
40837;SDS011;29632;49.168;9.848;2022-09-16T00:11:25;4.93;;;3.33;;
40837;SDS011;29632;49.168;9.848;2022-09-16T00:13:51;7.47;;;4.37;;
40837;SDS011;29632;49.168;9.848;2022-09-16T00:16:18;6.27;;;4.47;;
40837;SDS011;29632;49.168;9.848;2022-09-16T00:18:53;4.93;;;3.87;;
40837;SDS011;29632;49.168;9.848;2022-09-16T00:21:25;6.23;;;4.17;;
40837;SDS011;29632;49.168;9.848;2022-09-16T00:23:53;6.20;;;3.90;;
40837;SDS011;29632;49.168;9.848;2022-09-16T00:26:20;10.50;;;3.90;;
40837;SDS011;29632;49.168;9.848;2022-09-16T00:28:49;4.87;;;3.33;;
40837;SDS011;29632;49.168;9.848;2022-09-16T00:31:15;4.77;;;3.33;;
40837;SDS011;29632;49.168;9.848;2022-09-16T00:33:41;4.57;;;3.50;;
40837;SDS011;29632;49.168;9.848;2022-09-16T00:36:08;5.13;;;3.83;;
40837;SDS011;29632;49.168;9.848;2022-09-16T00:41:04;5.77;;;3.63;;
40837;SDS011;29632;49.168;9.848;2022-09-16T00:46:39;6.47;;;3.53;;
40837;SDS011;29632;49.168;9.848;2022-09-16T00:49:17;5.47;;;3.80;;
40837;SDS011;29632;49.168;9.848;2022-09-16T00:51:51;5.17;;;3.43;;
40837;SDS011;29632;49.168;9.848;2022-09-16T00:54:21;6.20;;;4.37;;
40837;SDS011;29632;49.168;9.848;2022-09-16T00:56:49;6.17;;;4.07;;
40837;SDS011;29632;49.168;9.848;2022-09-16T00:59:21;8.73;;;4.20;;
40837;SDS011;29632;49.168;9.848;2022-09-16T01:01:52;6.10;;;3.80;;
40837;SDS011;29632;49.168;9.848;2022-09-16T01:04:22;6.33;;;4.23;;
40837;SDS011;29632;49.168;9.848;2022-09-16T01:06:56;6.13;;;4.03;;
40837;SDS011;29632;49.168;9.848;2022-09-16T01:09:23;11.37;;;4.47;;
40837;SDS011;29632;49.168;9.848;2022-09-16T01:11:50;5.83;;;3.63;;
40837;SDS011;29632;49.168;9.848;2022-09-16T01:14:16;5.87;;;4.23;;
40837;SDS011;29632;49.168;9.848;2022-09-16T01:19:40;8.57;;;3.83;;
40837;SDS011;29632;49.168;9.848;2022-09-16T01:34:23;5.83;;;4.17;;
40837;SDS011;29632;49.168;9.848;2022-09-16T01:37:02;9.77;;;4.70;;
40837;SDS011;29632;49.168;9.848;2022-09-16T01:39:47;5.80;;;3.97;;
40837;SDS011;29632;49.168;9.848;2022-09-16T01:48:09;6.47;;;3.90;;
40837;SDS011;29632;49.168;9.848;2022-09-16T01:50:58;4.70;;;3.37;;
40837;SDS011;29632;49.168;9.848;2022-09-16T01:56:26;7.60;;;4.23;;
40837;SDS011;29632;49.168;9.848;2022-09-16T02:04:56;5.67;;;3.33;;
40837;SDS011;29632;49.168;9.848;2022-09-16T02:07:24;6.13;;;3.93;;
40837;SDS011;29632;49.168;9.848;2022-09-16T02:09:59;6.23;;;4.37;;
40837;SDS011;29632;49.168;9.848;2022-09-16T02:12:41;6.80;;;3.53;;
40837;SDS011;29632;49.168;9.848;2022-09-16T02:15:09;6.93;;;3.73;;
40837;SDS011;29632;49.168;9.848;2022-09-16T02:17:44;6.20;;;4.40;;
40837;SDS011;29632;49.168;9.848;2022-09-16T02:20:19;7.20;;;4.50;;
40837;SDS011;29632;49.168;9.848;2022-09-16T02:22:52;6.23;;;3.90;;
40837;SDS011;29632;49.168;9.848;2022-09-16T02:25:38;5.50;;;3.67;;
40837;SDS011;29632;49.168;9.848;2022-09-16T02:28:08;11.07;;;4.37;;
40837;SDS011;29632;49.168;9.848;2022-09-16T02:30:41;5.23;;;3.87;;
40837;SDS011;29632;49.168;9.848;2022-09-16T02:33:11;4.88;;;3.63;;
40837;SDS011;29632;49.168;9.848;2022-09-16T02:35:39;5.47;;;3.37;;
40837;SDS011;29632;49.168;9.848;2022-09-16T02:38:08;5.33;;;3.70;;
40837;SDS011;29632;49.168;9.848;2022-09-16T02:40:55;4.70;;;3.53;;
40837;SDS011;29632;49.168;9.848;2022-09-16T02:43:23;8.53;;;3.50;;
40837;SDS011;29632;49.168;9.848;2022-09-16T02:48:34;6.67;;;4.37;;
40837;SDS011;29632;49.168;9.848;2022-09-16T02:51:19;8.50;;;3.43;;
40837;SDS011;29632;49.168;9.848;2022-09-16T02:54:00;6.73;;;3.70;;
40837;SDS011;29632;49.168;9.848;2022-09-16T02:57:00;5.03;;;3.10;;
40837;SDS011;29632;49.168;9.848;2022-09-16T02:59:26;5.17;;;4.10;;
40837;SDS011;29632;49.168;9.848;2022-09-16T03:01:52;3.90;;;2.83;;
40837;SDS011;29632;49.168;9.848;2022-09-16T03:04:19;4.80;;;3.30;;
40837;SDS011;29632;49.168;9.848;2022-09-16T03:06:45;7.87;;;4.27;;
40837;SDS011;29632;49.168;9.848;2022-09-16T03:09:12;5.60;;;4.00;;
40837;SDS011;29632;49.168;9.848;2022-09-16T03:20:43;6.27;;;3.73;;
40837;SDS011;29632;49.168;9.848;2022-09-16T03:23:36;4.77;;;3.13;;
40837;SDS011;29632;49.168;9.848;2022-09-16T03:26:47;7.13;;;3.50;;
40837;SDS011;29632;49.168;9.848;2022-09-16T03:29:27;6.43;;;4.13;;
40837;SDS011;29632;49.168;9.848;2022-09-16T03:35:10;9.33;;;4.97;;
40837;SDS011;29632;49.168;9.848;2022-09-16T03:37:43;5.93;;;3.67;;
40837;SDS011;29632;49.168;9.848;2022-09-16T03:40:11;5.13;;;4.03;;
40837;SDS011;29632;49.168;9.848;2022-09-16T03:42:41;6.70;;;3.63;;
40837;SDS011;29632;49.168;9.848;2022-09-16T03:45:09;5.80;;;3.30;;
40837;SDS011;29632;49.168;9.848;2022-09-16T03:47:41;8.40;;;5.47;;
40837;SDS011;29632;49.168;9.848;2022-09-16T03:50:12;9.63;;;4.17;;
40837;SDS011;29632;49.168;9.848;2022-09-16T03:52:38;4.80;;;3.77;;
40837;SDS011;29632;49.168;9.848;2022-09-16T03:55:05;6.47;;;3.53;;
40837;SDS011;29632;49.168;9.848;2022-09-16T03:57:31;6.43;;;3.47;;
40837;SDS011;29632;49.168;9.848;2022-09-16T03:59:58;6.87;;;3.90;;
40837;SDS011;29632;49.168;9.848;2022-09-16T04:02:23;5.87;;;4.20;;
40837;SDS011;29632;49.168;9.848;2022-09-16T04:04:49;7.13;;;3.77;;
40837;SDS011;29632;49.168;9.848;2022-09-16T04:07:16;6.67;;;3.93;;
40837;SDS011;29632;49.168;9.848;2022-09-16T04:09:42;5.10;;;3.33;;
40837;SDS011;29632;49.168;9.848;2022-09-16T04:12:07;5.57;;;3.57;;
40837;SDS011;29632;49.168;9.848;2022-09-16T04:14:33;5.43;;;3.73;;
40837;SDS011;29632;49.168;9.848;2022-09-16T04:17:00;7.43;;;3.87;;
40837;SDS011;29632;49.168;9.848;2022-09-16T04:19:26;5.97;;;4.03;;
40837;SDS011;29632;49.168;9.848;2022-09-16T04:21:52;7.17;;;3.67;;
40837;SDS011;29632;49.168;9.848;2022-09-16T04:24:18;6.60;;;3.60;;
40837;SDS011;29632;49.168;9.848;2022-09-16T04:26:43;6.87;;;3.70;;
40837;SDS011;29632;49.168;9.848;2022-09-16T04:29:09;4.27;;;3.10;;
40837;SDS011;29632;49.168;9.848;2022-09-16T04:31:35;4.53;;;3.03;;
40837;SDS011;29632;49.168;9.848;2022-09-16T04:34:02;4.67;;;3.13;;
40837;SDS011;29632;49.168;9.848;2022-09-16T04:36:29;4.57;;;3.20;;
40837;SDS011;29632;49.168;9.848;2022-09-16T04:38:55;6.53;;;3.80;;
40837;SDS011;29632;49.168;9.848;2022-09-16T04:41:21;5.23;;;3.37;;
40837;SDS011;29632;49.168;9.848;2022-09-16T04:43:49;4.77;;;3.00;;
40837;SDS011;29632;49.168;9.848;2022-09-16T04:46:20;5.40;;;3.10;;
40837;SDS011;29632;49.168;9.848;2022-09-16T04:48:48;4.80;;;3.33;;
40837;SDS011;29632;49.168;9.848;2022-09-16T04:51:15;4.77;;;3.10;;
40837;SDS011;29632;49.168;9.848;2022-09-16T04:53:43;5.90;;;3.73;;
40837;SDS011;29632;49.168;9.848;2022-09-16T04:56:11;3.70;;;2.90;;
40837;SDS011;29632;49.168;9.848;2022-09-16T04:58:50;6.30;;;3.50;;
40837;SDS011;29632;49.168;9.848;2022-09-16T05:01:19;5.03;;;3.23;;
40837;SDS011;29632;49.168;9.848;2022-09-16T05:03:49;7.40;;;3.80;;
40837;SDS011;29632;49.168;9.848;2022-09-16T05:06:21;6.30;;;3.53;;
40837;SDS011;29632;49.168;9.848;2022-09-16T05:08:52;4.43;;;3.03;;
40837;SDS011;29632;49.168;9.848;2022-09-16T05:11:24;4.53;;;3.10;;
40837;SDS011;29632;49.168;9.848;2022-09-16T05:13:54;4.97;;;2.73;;
40837;SDS011;29632;49.168;9.848;2022-09-16T05:16:24;5.17;;;3.07;;
40837;SDS011;29632;49.168;9.848;2022-09-16T05:18:52;4.67;;;3.13;;
40837;SDS011;29632;49.168;9.848;2022-09-16T05:21:21;4.95;;;3.05;;
40837;SDS011;29632;49.168;9.848;2022-09-16T05:23:49;4.00;;;2.87;;
40837;SDS011;29632;49.168;9.848;2022-09-16T05:26:17;6.40;;;2.60;;
40837;SDS011;29632;49.168;9.848;2022-09-16T05:28:45;5.10;;;2.90;;
40837;SDS011;29632;49.168;9.848;2022-09-16T05:31:22;6.60;;;2.97;;
40837;SDS011;29632;49.168;9.848;2022-09-16T05:33:57;7.00;;;2.63;;
40837;SDS011;29632;49.168;9.848;2022-09-16T05:36:36;6.73;;;3.10;;
40837;SDS011;29632;49.168;9.848;2022-09-16T05:39:03;4.73;;;3.33;;
40837;SDS011;29632;49.168;9.848;2022-09-16T05:41:29;5.87;;;2.67;;
40837;SDS011;29632;49.168;9.848;2022-09-16T05:43:59;4.33;;;2.30;;
40837;SDS011;29632;49.168;9.848;2022-09-16T05:46:25;4.03;;;2.33;;
40837;SDS011;29632;49.168;9.848;2022-09-16T05:48:52;3.70;;;2.63;;
40837;SDS011;29632;49.168;9.848;2022-09-16T05:51:19;3.40;;;2.30;;
40837;SDS011;29632;49.168;9.848;2022-09-16T05:53:47;4.00;;;2.33;;
40837;SDS011;29632;49.168;9.848;2022-09-16T05:56:15;4.37;;;2.30;;
40837;SDS011;29632;49.168;9.848;2022-09-16T05:58:53;5.63;;;2.50;;
40837;SDS011;29632;49.168;9.848;2022-09-16T06:01:25;5.00;;;2.30;;
40837;SDS011;29632;49.168;9.848;2022-09-16T06:03:53;4.03;;;2.43;;
40837;SDS011;29632;49.168;9.848;2022-09-16T06:06:23;5.27;;;2.10;;
40837;SDS011;29632;49.168;9.848;2022-09-16T06:09:03;3.33;;;2.03;;
40837;SDS011;29632;49.168;9.848;2022-09-16T06:11:35;3.33;;;1.87;;
40837;SDS011;29632;49.168;9.848;2022-09-16T06:14:03;3.13;;;2.35;;
40837;SDS011;29632;49.168;9.848;2022-09-16T06:16:30;4.00;;;2.10;;
40837;SDS011;29632;49.168;9.848;2022-09-16T06:19:00;2.93;;;1.87;;
40837;SDS011;29632;49.168;9.848;2022-09-16T06:21:28;4.97;;;2.22;;
40837;SDS011;29632;49.168;9.848;2022-09-16T06:23:55;3.27;;;1.83;;
40837;SDS011;29632;49.168;9.848;2022-09-16T06:26:21;3.67;;;1.87;;
40837;SDS011;29632;49.168;9.848;2022-09-16T06:28:50;4.57;;;2.07;;
40837;SDS011;29632;49.168;9.848;2022-09-16T06:31:18;5.80;;;2.23;;
40837;SDS011;29632;49.168;9.848;2022-09-16T06:33:49;7.77;;;2.23;;
40837;SDS011;29632;49.168;9.848;2022-09-16T06:36:17;4.93;;;2.67;;
40837;SDS011;29632;49.168;9.848;2022-09-16T06:38:46;3.17;;;2.30;;
40837;SDS011;29632;49.168;9.848;2022-09-16T06:41:12;4.07;;;2.03;;
40837;SDS011;29632;49.168;9.848;2022-09-16T06:43:40;4.00;;;1.90;;
40837;SDS011;29632;49.168;9.848;2022-09-16T06:46:08;3.10;;;1.90;;
40837;SDS011;29632;49.168;9.848;2022-09-16T06:48:42;2.83;;;1.40;;
40837;SDS011;29632;49.168;9.848;2022-09-16T06:51:14;2.53;;;1.57;;
40837;SDS011;29632;49.168;9.848;2022-09-16T06:53:42;4.17;;;2.03;;
40837;SDS011;29632;49.168;9.848;2022-09-16T06:56:10;4.77;;;2.23;;
40837;SDS011;29632;49.168;9.848;2022-09-16T06:58:39;3.30;;;2.10;;
40837;SDS011;29632;49.168;9.848;2022-09-16T07:01:26;3.57;;;1.87;;
40837;SDS011;29632;49.168;9.848;2022-09-16T07:03:54;4.17;;;2.17;;
40837;SDS011;29632;49.168;9.848;2022-09-16T07:06:22;3.93;;;2.20;;
40837;SDS011;29632;49.168;9.848;2022-09-16T07:08:52;5.60;;;2.33;;
40837;SDS011;29632;49.168;9.848;2022-09-16T07:11:19;4.83;;;1.80;;
40837;SDS011;29632;49.168;9.848;2022-09-16T07:13:47;6.07;;;1.70;;
40837;SDS011;29632;49.168;9.848;2022-09-16T07:16:15;3.00;;;1.40;;
40837;SDS011;29632;49.168;9.848;2022-09-16T07:18:44;2.87;;;1.50;;
40837;SDS011;29632;49.168;9.848;2022-09-16T07:21:17;2.67;;;1.47;;
40837;SDS011;29632;49.168;9.848;2022-09-16T07:23:45;3.03;;;1.80;;
40837;SDS011;29632;49.168;9.848;2022-09-16T07:28:42;1.83;;;1.40;;
40837;SDS011;29632;49.168;9.848;2022-09-16T07:31:17;2.83;;;1.47;;
40837;SDS011;29632;49.168;9.848;2022-09-16T07:33:52;2.10;;;1.20;;
40837;SDS011;29632;49.168;9.848;2022-09-16T07:36:24;3.60;;;1.83;;
40837;SDS011;29632;49.168;9.848;2022-09-16T07:38:54;2.37;;;1.37;;
40837;SDS011;29632;49.168;9.848;2022-09-16T07:41:24;4.17;;;2.40;;
40837;SDS011;29632;49.168;9.848;2022-09-16T07:43:55;6.37;;;2.00;;
40837;SDS011;29632;49.168;9.848;2022-09-16T07:46:23;2.83;;;1.53;;
40837;SDS011;29632;49.168;9.848;2022-09-16T07:48:51;3.70;;;1.73;;
40837;SDS011;29632;49.168;9.848;2022-09-16T07:51:18;3.23;;;1.60;;
40837;SDS011;29632;49.168;9.848;2022-09-16T07:53:51;2.07;;;1.60;;
40837;SDS011;29632;49.168;9.848;2022-09-16T07:56:19;2.47;;;1.60;;
40837;SDS011;29632;49.168;9.848;2022-09-16T07:58:49;3.10;;;1.73;;
40837;SDS011;29632;49.168;9.848;2022-09-16T08:01:15;3.57;;;1.40;;
40837;SDS011;29632;49.168;9.848;2022-09-16T08:03:42;5.97;;;1.20;;
40837;SDS011;29632;49.168;9.848;2022-09-16T08:06:10;2.50;;;1.17;;
40837;SDS011;29632;49.168;9.848;2022-09-16T08:08:40;4.20;;;1.63;;
40837;SDS011;29632;49.168;9.848;2022-09-16T08:11:06;2.07;;;1.33;;
40837;SDS011;29632;49.168;9.848;2022-09-16T08:13:33;2.00;;;1.27;;
40837;SDS011;29632;49.168;9.848;2022-09-16T08:16:02;3.03;;;1.67;;
40837;SDS011;29632;49.168;9.848;2022-09-16T08:18:35;7.07;;;1.60;;
40837;SDS011;29632;49.168;9.848;2022-09-16T08:21:07;2.37;;;1.20;;
40837;SDS011;29632;49.168;9.848;2022-09-16T08:23:35;3.67;;;1.73;;
40837;SDS011;29632;49.168;9.848;2022-09-16T08:26:02;3.93;;;1.50;;
40837;SDS011;29632;49.168;9.848;2022-09-16T08:28:30;2.23;;;1.10;;
40837;SDS011;29632;49.168;9.848;2022-09-16T08:31:00;5.00;;;1.37;;
40837;SDS011;29632;49.168;9.848;2022-09-16T08:33:26;3.05;;;1.20;;
40837;SDS011;29632;49.168;9.848;2022-09-16T08:36:12;4.57;;;1.57;;
40837;SDS011;29632;49.168;9.848;2022-09-16T08:38:44;1.90;;;1.30;;
40837;SDS011;29632;49.168;9.848;2022-09-16T08:41:20;4.53;;;1.70;;
40837;SDS011;29632;49.168;9.848;2022-09-16T08:44:02;2.40;;;1.07;;
40837;SDS011;29632;49.168;9.848;2022-09-16T08:46:55;2.47;;;1.20;;
40837;SDS011;29632;49.168;9.848;2022-09-16T08:49:29;3.83;;;1.53;;
40837;SDS011;29632;49.168;9.848;2022-09-16T08:52:04;2.10;;;1.27;;
40837;SDS011;29632;49.168;9.848;2022-09-16T08:54:48;2.47;;;1.23;;
40837;SDS011;29632;49.168;9.848;2022-09-16T08:57:20;3.23;;;1.50;;
40837;SDS011;29632;49.168;9.848;2022-09-16T08:59:53;3.40;;;1.30;;
40837;SDS011;29632;49.168;9.848;2022-09-16T09:05:20;4.60;;;1.30;;
40837;SDS011;29632;49.168;9.848;2022-09-16T09:10:51;6.47;;;1.17;;
40837;SDS011;29632;49.168;9.848;2022-09-16T09:19:20;4.87;;;1.50;;
40837;SDS011;29632;49.168;9.848;2022-09-16T09:28:12;3.27;;;1.10;;
40837;SDS011;29632;49.168;9.848;2022-09-16T09:41:23;2.13;;;1.03;;
40837;SDS011;29632;49.168;9.848;2022-09-16T09:47:27;4.33;;;1.47;;
40837;SDS011;29632;49.168;9.848;2022-09-16T09:50:13;2.50;;;1.23;;
40837;SDS011;29632;49.168;9.848;2022-09-16T09:53:04;4.70;;;1.33;;
40837;SDS011;29632;49.168;9.848;2022-09-16T09:55:35;3.60;;;1.60;;
40837;SDS011;29632;49.168;9.848;2022-09-16T09:58:09;4.00;;;1.40;;
40837;SDS011;29632;49.168;9.848;2022-09-16T10:00:58;7.57;;;2.70;;
40837;SDS011;29632;49.168;9.848;2022-09-16T10:03:25;3.03;;;1.30;;
40837;SDS011;29632;49.168;9.848;2022-09-16T10:05:54;5.13;;;1.97;;
40837;SDS011;29632;49.168;9.848;2022-09-16T10:11:13;3.77;;;1.60;;
40837;SDS011;29632;49.168;9.848;2022-09-16T10:13:46;3.37;;;1.70;;
40837;SDS011;29632;49.168;9.848;2022-09-16T10:16:20;4.43;;;1.93;;
40837;SDS011;29632;49.168;9.848;2022-09-16T10:19:06;4.90;;;1.83;;
40837;SDS011;29632;49.168;9.848;2022-09-16T10:21:50;8.70;;;4.10;;
40837;SDS011;29632;49.168;9.848;2022-09-16T10:24:33;4.90;;;3.70;;
40837;SDS011;29632;49.168;9.848;2022-09-16T10:27:16;7.13;;;3.67;;
40837;SDS011;29632;49.168;9.848;2022-09-16T10:35:28;4.03;;;2.30;;
40837;SDS011;29632;49.168;9.848;2022-09-16T10:38:04;3.37;;;1.80;;
40837;SDS011;29632;49.168;9.848;2022-09-16T10:40:37;4.68;;;2.20;;
40837;SDS011;29632;49.168;9.848;2022-09-16T10:43:14;4.77;;;2.63;;
40837;SDS011;29632;49.168;9.848;2022-09-16T10:45:44;3.70;;;1.73;;
40837;SDS011;29632;49.168;9.848;2022-09-16T10:48:14;5.17;;;2.40;;
40837;SDS011;29632;49.168;9.848;2022-09-16T10:53:36;2.80;;;1.50;;
40837;SDS011;29632;49.168;9.848;2022-09-16T10:56:16;2.77;;;1.37;;
40837;SDS011;29632;49.168;9.848;2022-09-16T10:58:44;3.33;;;1.43;;
40837;SDS011;29632;49.168;9.848;2022-09-16T11:07:03;3.73;;;2.03;;
40837;SDS011;29632;49.168;9.848;2022-09-16T11:10:03;4.10;;;2.10;;
40837;SDS011;29632;49.168;9.848;2022-09-16T11:18:04;4.73;;;1.80;;
40837;SDS011;29632;49.168;9.848;2022-09-16T11:32:29;4.20;;;1.83;;
40837;SDS011;29632;49.168;9.848;2022-09-16T11:35:37;3.20;;;2.00;;
40837;SDS011;29632;49.168;9.848;2022-09-16T11:38:55;3.10;;;1.70;;
40837;SDS011;29632;49.168;9.848;2022-09-16T11:41:43;3.47;;;1.53;;
40837;SDS011;29632;49.168;9.848;2022-09-16T11:50:48;13.30;;;7.97;;
40837;SDS011;29632;49.168;9.848;2022-09-16T11:53:32;8.27;;;4.03;;
40837;SDS011;29632;49.168;9.848;2022-09-16T12:01:54;3.33;;;1.50;;
40837;SDS011;29632;49.168;9.848;2022-09-16T12:10:31;4.27;;;1.60;;
40837;SDS011;29632;49.168;9.848;2022-09-16T12:13:45;3.13;;;1.53;;
40837;SDS011;29632;49.168;9.848;2022-09-16T12:16:14;2.40;;;1.40;;
40837;SDS011;29632;49.168;9.848;2022-09-16T12:18:51;6.97;;;2.77;;
40837;SDS011;29632;49.168;9.848;2022-09-16T12:21:31;8.50;;;3.47;;
40837;SDS011;29632;49.168;9.848;2022-09-16T12:24:14;11.33;;;6.87;;
40837;SDS011;29632;49.168;9.848;2022-09-16T12:27:20;7.47;;;4.20;;
40837;SDS011;29632;49.168;9.848;2022-09-16T12:30:14;4.50;;;2.60;;
40837;SDS011;29632;49.168;9.848;2022-09-16T12:36:03;4.07;;;2.00;;
40837;SDS011;29632;49.168;9.848;2022-09-16T12:38:36;3.13;;;1.80;;
40837;SDS011;29632;49.168;9.848;2022-09-16T12:43:58;3.73;;;2.47;;
40837;SDS011;29632;49.168;9.848;2022-09-16T12:47:13;2.80;;;1.90;;
40837;SDS011;29632;49.168;9.848;2022-09-16T12:59:03;3.35;;;1.80;;
40837;SDS011;29632;49.168;9.848;2022-09-16T13:01:48;3.93;;;1.60;;
40837;SDS011;29632;49.168;9.848;2022-09-16T13:04:47;2.50;;;1.40;;
40837;SDS011;29632;49.168;9.848;2022-09-16T13:07:26;4.13;;;1.85;;
40837;SDS011;29632;49.168;9.848;2022-09-16T13:10:00;4.00;;;1.30;;
40837;SDS011;29632;49.168;9.848;2022-09-16T13:12:53;2.35;;;1.10;;
40837;SDS011;29632;49.168;9.848;2022-09-16T13:15:30;4.53;;;1.23;;
40837;SDS011;29632;49.168;9.848;2022-09-16T13:20:55;2.47;;;1.27;;
40837;SDS011;29632;49.168;9.848;2022-09-16T13:23:26;4.20;;;2.00;;
40837;SDS011;29632;49.168;9.848;2022-09-16T13:25:58;3.20;;;1.50;;
40837;SDS011;29632;49.168;9.848;2022-09-16T13:33:42;3.83;;;1.30;;
40837;SDS011;29632;49.168;9.848;2022-09-16T13:38:47;2.50;;;1.20;;
40837;SDS011;29632;49.168;9.848;2022-09-16T13:47:11;4.10;;;1.13;;
40837;SDS011;29632;49.168;9.848;2022-09-16T13:49:54;1.73;;;1.10;;
40837;SDS011;29632;49.168;9.848;2022-09-16T13:52:50;5.13;;;1.10;;
40837;SDS011;29632;49.168;9.848;2022-09-16T13:55:21;8.37;;;1.80;;
40837;SDS011;29632;49.168;9.848;2022-09-16T13:57:57;1.80;;;1.00;;
40837;SDS011;29632;49.168;9.848;2022-09-16T14:04:18;4.10;;;0.90;;
40837;SDS011;29632;49.168;9.848;2022-09-16T14:07:25;1.65;;;0.98;;
40837;SDS011;29632;49.168;9.848;2022-09-16T14:13:16;1.90;;;0.70;;
40837;SDS011;29632;49.168;9.848;2022-09-16T14:15:52;1.97;;;1.00;;
40837;SDS011;29632;49.168;9.848;2022-09-16T14:18:22;3.03;;;0.93;;
40837;SDS011;29632;49.168;9.848;2022-09-16T14:21:02;2.33;;;1.00;;
40837;SDS011;29632;49.168;9.848;2022-09-16T14:23:30;2.23;;;0.77;;
40837;SDS011;29632;49.168;9.848;2022-09-16T14:26:14;2.83;;;0.80;;
40837;SDS011;29632;49.168;9.848;2022-09-16T14:28:45;1.67;;;0.77;;
40837;SDS011;29632;49.168;9.848;2022-09-16T14:31:13;2.57;;;1.17;;
40837;SDS011;29632;49.168;9.848;2022-09-16T14:33:50;1.47;;;0.70;;
40837;SDS011;29632;49.168;9.848;2022-09-16T14:36:18;4.13;;;0.83;;
40837;SDS011;29632;49.168;9.848;2022-09-16T14:38:53;1.87;;;0.80;;
40837;SDS011;29632;49.168;9.848;2022-09-16T14:47:27;2.80;;;0.90;;
40837;SDS011;29632;49.168;9.848;2022-09-16T14:50:05;1.87;;;0.80;;
40837;SDS011;29632;49.168;9.848;2022-09-16T14:52:39;3.20;;;1.10;;
40837;SDS011;29632;49.168;9.848;2022-09-16T14:55:47;3.23;;;1.13;;
40837;SDS011;29632;49.168;9.848;2022-09-16T14:57:58;3.03;;;1.10;;
40837;SDS011;29632;49.168;9.848;2022-09-16T15:00:34;4.03;;;1.07;;
40837;SDS011;29632;49.168;9.848;2022-09-16T15:03:13;5.17;;;0.87;;
40837;SDS011;29632;49.168;9.848;2022-09-16T15:05:49;2.87;;;0.90;;
40837;SDS011;29632;49.168;9.848;2022-09-16T15:08:19;2.20;;;1.10;;
40837;SDS011;29632;49.168;9.848;2022-09-16T15:10:58;2.23;;;0.73;;
40837;SDS011;29632;49.168;9.848;2022-09-16T15:13:34;4.87;;;1.90;;
40837;SDS011;29632;49.168;9.848;2022-09-16T15:16:08;3.17;;;2.03;;
40837;SDS011;29632;49.168;9.848;2022-09-16T15:18:51;2.33;;;1.60;;
40837;SDS011;29632;49.168;9.848;2022-09-16T15:21:33;3.33;;;1.73;;
40837;SDS011;29632;49.168;9.848;2022-09-16T15:24:03;5.07;;;2.30;;
40837;SDS011;29632;49.168;9.848;2022-09-16T15:26:39;4.47;;;2.03;;
40837;SDS011;29632;49.168;9.848;2022-09-16T15:29:12;4.40;;;1.40;;
40837;SDS011;29632;49.168;9.848;2022-09-16T15:32:06;3.53;;;1.30;;
40837;SDS011;29632;49.168;9.848;2022-09-16T15:34:44;12.43;;;7.83;;
40837;SDS011;29632;49.168;9.848;2022-09-16T15:42:59;17.37;;;10.33;;
40837;SDS011;29632;49.168;9.848;2022-09-16T15:45:38;57.87;;;13.50;;
40837;SDS011;29632;49.168;9.848;2022-09-16T15:48:06;17.60;;;10.83;;
40837;SDS011;29632;49.168;9.848;2022-09-16T15:53:33;4.17;;;2.17;;
40837;SDS011;29632;49.168;9.848;2022-09-16T15:59:37;4.35;;;1.00;;
40837;SDS011;29632;49.168;9.848;2022-09-16T16:05:28;2.90;;;0.90;;
40837;SDS011;29632;49.168;9.848;2022-09-16T16:07:56;1.70;;;0.63;;
40837;SDS011;29632;49.168;9.848;2022-09-16T16:12:57;2.30;;;1.10;;
40837;SDS011;29632;49.168;9.848;2022-09-16T16:15:26;1.10;;;0.70;;
40837;SDS011;29632;49.168;9.848;2022-09-16T16:17:56;2.28;;;1.15;;
40837;SDS011;29632;49.168;9.848;2022-09-16T16:20:26;3.90;;;2.77;;
40837;SDS011;29632;49.168;9.848;2022-09-16T16:22:56;4.78;;;2.05;;
40837;SDS011;29632;49.168;9.848;2022-09-16T16:25:22;2.33;;;1.60;;
40837;SDS011;29632;49.168;9.848;2022-09-16T16:27:47;2.50;;;1.40;;
40837;SDS011;29632;49.168;9.848;2022-09-16T16:30:13;2.60;;;1.27;;
40837;SDS011;29632;49.168;9.848;2022-09-16T16:32:39;2.80;;;1.10;;
40837;SDS011;29632;49.168;9.848;2022-09-16T16:35:05;1.47;;;0.97;;
40837;SDS011;29632;49.168;9.848;2022-09-16T16:37:32;0.90;;;0.70;;
40837;SDS011;29632;49.168;9.848;2022-09-16T16:39:58;2.17;;;0.97;;
40837;SDS011;29632;49.168;9.848;2022-09-16T16:42:24;1.27;;;0.60;;
40837;SDS011;29632;49.168;9.848;2022-09-16T16:44:49;1.60;;;0.50;;
40837;SDS011;29632;49.168;9.848;2022-09-16T16:47:15;1.17;;;0.40;;
40837;SDS011;29632;49.168;9.848;2022-09-16T16:49:41;1.40;;;0.53;;
40837;SDS011;29632;49.168;9.848;2022-09-16T16:52:07;1.10;;;0.50;;
40837;SDS011;29632;49.168;9.848;2022-09-16T16:54:33;1.37;;;0.57;;
40837;SDS011;29632;49.168;9.848;2022-09-16T16:57:00;1.97;;;0.40;;
40837;SDS011;29632;49.168;9.848;2022-09-16T16:59:28;3.47;;;1.70;;
40837;SDS011;29632;49.168;9.848;2022-09-16T17:01:55;3.63;;;1.60;;
40837;SDS011;29632;49.168;9.848;2022-09-16T17:04:22;1.00;;;0.50;;
40837;SDS011;29632;49.168;9.848;2022-09-16T17:06:49;0.87;;;0.40;;
40837;SDS011;29632;49.168;9.848;2022-09-16T17:09:15;0.40;;;0.33;;
40837;SDS011;29632;49.168;9.848;2022-09-16T17:11:48;1.10;;;0.50;;
40837;SDS011;29632;49.168;9.848;2022-09-16T17:14:20;1.53;;;0.80;;
40837;SDS011;29632;49.168;9.848;2022-09-16T17:16:49;1.67;;;0.30;;
40837;SDS011;29632;49.168;9.848;2022-09-16T17:19:16;1.37;;;0.50;;
40837;SDS011;29632;49.168;9.848;2022-09-16T17:21:43;1.23;;;0.50;;
40837;SDS011;29632;49.168;9.848;2022-09-16T17:24:10;0.40;;;0.40;;
40837;SDS011;29632;49.168;9.848;2022-09-16T17:26:37;1.07;;;0.80;;
40837;SDS011;29632;49.168;9.848;2022-09-16T17:29:03;2.67;;;2.20;;
40837;SDS011;29632;49.168;9.848;2022-09-16T17:31:30;3.07;;;1.40;;
40837;SDS011;29632;49.168;9.848;2022-09-16T17:33:58;0.80;;;0.70;;
40837;SDS011;29632;49.168;9.848;2022-09-16T17:36:29;0.70;;;0.60;;
40837;SDS011;29632;49.168;9.848;2022-09-16T17:39:03;0.67;;;0.50;;
40837;SDS011;29632;49.168;9.848;2022-09-16T17:41:32;1.13;;;0.70;;
40837;SDS011;29632;49.168;9.848;2022-09-16T17:43:58;0.83;;;0.37;;
40837;SDS011;29632;49.168;9.848;2022-09-16T17:46:28;0.80;;;0.60;;
40837;SDS011;29632;49.168;9.848;2022-09-16T17:48:58;1.10;;;0.57;;
40837;SDS011;29632;49.168;9.848;2022-09-16T17:51:25;2.53;;;0.83;;
40837;SDS011;29632;49.168;9.848;2022-09-16T17:53:51;1.10;;;0.77;;
40837;SDS011;29632;49.168;9.848;2022-09-16T17:56:17;1.37;;;0.93;;
40837;SDS011;29632;49.168;9.848;2022-09-16T17:58:44;1.90;;;0.80;;
40837;SDS011;29632;49.168;9.848;2022-09-16T18:01:16;2.00;;;0.87;;
40837;SDS011;29632;49.168;9.848;2022-09-16T18:03:45;5.30;;;1.23;;
40837;SDS011;29632;49.168;9.848;2022-09-16T18:06:24;1.90;;;0.60;;
40837;SDS011;29632;49.168;9.848;2022-09-16T18:08:53;1.50;;;0.80;;
40837;SDS011;29632;49.168;9.848;2022-09-16T18:11:20;0.53;;;0.40;;
40837;SDS011;29632;49.168;9.848;2022-09-16T18:13:46;1.27;;;0.50;;
40837;SDS011;29632;49.168;9.848;2022-09-16T18:16:17;1.77;;;0.57;;
40837;SDS011;29632;49.168;9.848;2022-09-16T18:18:44;0.80;;;0.40;;
40837;SDS011;29632;49.168;9.848;2022-09-16T18:21:14;0.65;;;0.50;;
40837;SDS011;29632;49.168;9.848;2022-09-16T18:23:41;0.40;;;0.40;;
40837;SDS011;29632;49.168;9.848;2022-09-16T18:26:09;0.63;;;0.43;;
40837;SDS011;29632;49.168;9.848;2022-09-16T18:28:38;0.60;;;0.40;;
40837;SDS011;29632;49.168;9.848;2022-09-16T18:31:15;2.00;;;0.63;;
40837;SDS011;29632;49.168;9.848;2022-09-16T18:33:44;1.00;;;0.40;;
40837;SDS011;29632;49.168;9.848;2022-09-16T18:36:11;4.63;;;2.63;;
40837;SDS011;29632;49.168;9.848;2022-09-16T18:38:40;6.32;;;3.47;;
40837;SDS011;29632;49.168;9.848;2022-09-16T18:41:08;3.53;;;2.10;;